sensor_id;sensor_type;location;lat;lon;timestamp;temperature;humidity
31263;DHT22;17892;52.080;9.006;2024-03-02T00:00:06;8.70;99.90
31263;DHT22;17892;52.080;9.006;2024-03-02T00:02:44;8.70;99.90
31263;DHT22;17892;52.080;9.006;2024-03-02T00:05:12;8.70;99.90
31263;DHT22;17892;52.080;9.006;2024-03-02T00:07:42;8.70;99.90
31263;DHT22;17892;52.080;9.006;2024-03-02T00:10:10;8.70;99.90
31263;DHT22;17892;52.080;9.006;2024-03-02T00:12:38;8.70;99.90
31263;DHT22;17892;52.080;9.006;2024-03-02T00:17:54;8.70;99.90
31263;DHT22;17892;52.080;9.006;2024-03-02T00:20:22;8.70;99.90
31263;DHT22;17892;52.080;9.006;2024-03-02T00:22:49;8.70;99.90
31263;DHT22;17892;52.080;9.006;2024-03-02T00:25:16;8.70;99.90
31263;DHT22;17892;52.080;9.006;2024-03-02T00:27:42;8.60;99.90
31263;DHT22;17892;52.080;9.006;2024-03-02T00:33:42;8.60;99.90
31263;DHT22;17892;52.080;9.006;2024-03-02T00:36:10;8.60;99.90
31263;DHT22;17892;52.080;9.006;2024-03-02T00:38:47;8.50;99.90
31263;DHT22;17892;52.080;9.006;2024-03-02T00:41:23;8.50;99.90
31263;DHT22;17892;52.080;9.006;2024-03-02T00:44:02;8.40;99.90
31263;DHT22;17892;52.080;9.006;2024-03-02T00:46:37;8.40;99.90
31263;DHT22;17892;52.080;9.006;2024-03-02T00:51:50;8.40;99.90
31263;DHT22;17892;52.080;9.006;2024-03-02T00:54:25;8.30;99.90
31263;DHT22;17892;52.080;9.006;2024-03-02T00:56:52;8.30;99.90
31263;DHT22;17892;52.080;9.006;2024-03-02T00:59:21;8.30;99.90
31263;DHT22;17892;52.080;9.006;2024-03-02T01:01:48;8.30;99.90
31263;DHT22;17892;52.080;9.006;2024-03-02T01:04:14;8.30;99.90
31263;DHT22;17892;52.080;9.006;2024-03-02T01:06:42;8.30;99.90
31263;DHT22;17892;52.080;9.006;2024-03-02T01:09:08;8.30;99.90
31263;DHT22;17892;52.080;9.006;2024-03-02T01:11:34;8.20;99.90
31263;DHT22;17892;52.080;9.006;2024-03-02T01:14:00;8.20;99.90
31263;DHT22;17892;52.080;9.006;2024-03-02T01:16:25;8.20;99.90
31263;DHT22;17892;52.080;9.006;2024-03-02T01:18:51;8.20;99.90
31263;DHT22;17892;52.080;9.006;2024-03-02T01:21:17;8.20;99.90
31263;DHT22;17892;52.080;9.006;2024-03-02T01:23:42;8.20;99.90
31263;DHT22;17892;52.080;9.006;2024-03-02T01:26:08;8.20;99.90
31263;DHT22;17892;52.080;9.006;2024-03-02T01:28:34;8.20;99.90
31263;DHT22;17892;52.080;9.006;2024-03-02T01:31:00;8.20;99.90
31263;DHT22;17892;52.080;9.006;2024-03-02T01:33:27;8.10;99.90
31263;DHT22;17892;52.080;9.006;2024-03-02T01:35:52;8.10;99.90
31263;DHT22;17892;52.080;9.006;2024-03-02T01:38:18;8.20;99.90
31263;DHT22;17892;52.080;9.006;2024-03-02T01:40:44;8.20;99.90
31263;DHT22;17892;52.080;9.006;2024-03-02T01:43:10;8.20;99.90
31263;DHT22;17892;52.080;9.006;2024-03-02T01:45:36;8.20;99.90
31263;DHT22;17892;52.080;9.006;2024-03-02T01:48:06;8.20;99.90
31263;DHT22;17892;52.080;9.006;2024-03-02T01:50:32;8.20;99.90
31263;DHT22;17892;52.080;9.006;2024-03-02T01:52:59;8.20;99.90
31263;DHT22;17892;52.080;9.006;2024-03-02T01:55:25;8.20;99.90
31263;DHT22;17892;52.080;9.006;2024-03-02T01:57:51;8.20;99.90
31263;DHT22;17892;52.080;9.006;2024-03-02T02:00:18;8.20;99.90
31263;DHT22;17892;52.080;9.006;2024-03-02T02:02:45;8.20;99.90
31263;DHT22;17892;52.080;9.006;2024-03-02T02:05:12;8.20;99.90
31263;DHT22;17892;52.080;9.006;2024-03-02T02:07:38;8.20;99.90
31263;DHT22;17892;52.080;9.006;2024-03-02T02:10:04;8.20;99.90
31263;DHT22;17892;52.080;9.006;2024-03-02T02:12:30;8.10;99.90
31263;DHT22;17892;52.080;9.006;2024-03-02T02:14:56;8.10;99.90
31263;DHT22;17892;52.080;9.006;2024-03-02T02:17:21;8.10;99.90
31263;DHT22;17892;52.080;9.006;2024-03-02T02:19:47;8.10;99.90
31263;DHT22;17892;52.080;9.006;2024-03-02T02:22:13;8.10;99.90
31263;DHT22;17892;52.080;9.006;2024-03-02T02:24:42;8.10;99.90
31263;DHT22;17892;52.080;9.006;2024-03-02T02:27:08;8.10;99.90
31263;DHT22;17892;52.080;9.006;2024-03-02T02:29:35;8.10;99.90
31263;DHT22;17892;52.080;9.006;2024-03-02T02:32:01;8.10;99.90
31263;DHT22;17892;52.080;9.006;2024-03-02T02:34:27;8.10;99.90
31263;DHT22;17892;52.080;9.006;2024-03-02T02:36:53;8.10;99.90
31263;DHT22;17892;52.080;9.006;2024-03-02T02:39:20;8.10;99.90
31263;DHT22;17892;52.080;9.006;2024-03-02T02:41:47;8.00;99.90
31263;DHT22;17892;52.080;9.006;2024-03-02T02:44:13;8.00;99.90
31263;DHT22;17892;52.080;9.006;2024-03-02T02:46:40;8.00;99.90
31263;DHT22;17892;52.080;9.006;2024-03-02T02:49:06;8.00;99.90
31263;DHT22;17892;52.080;9.006;2024-03-02T02:51:31;8.00;99.90
31263;DHT22;17892;52.080;9.006;2024-03-02T02:53:57;8.00;99.90
31263;DHT22;17892;52.080;9.006;2024-03-02T02:56:23;7.90;99.90
31263;DHT22;17892;52.080;9.006;2024-03-02T02:58:48;7.90;99.90
31263;DHT22;17892;52.080;9.006;2024-03-02T03:01:15;7.90;99.90
31263;DHT22;17892;52.080;9.006;2024-03-02T03:03:44;7.90;99.90
31263;DHT22;17892;52.080;9.006;2024-03-02T03:06:11;7.90;99.90
31263;DHT22;17892;52.080;9.006;2024-03-02T03:08:37;7.80;99.90
31263;DHT22;17892;52.080;9.006;2024-03-02T03:11:03;7.80;99.90
31263;DHT22;17892;52.080;9.006;2024-03-02T03:13:30;7.70;99.90
31263;DHT22;17892;52.080;9.006;2024-03-02T03:15:56;7.70;99.90
31263;DHT22;17892;52.080;9.006;2024-03-02T03:18:22;7.70;99.90
31263;DHT22;17892;52.080;9.006;2024-03-02T03:20:47;7.60;99.90
31263;DHT22;17892;52.080;9.006;2024-03-02T03:23:13;7.60;99.90
31263;DHT22;17892;52.080;9.006;2024-03-02T03:25:42;7.60;99.90
31263;DHT22;17892;52.080;9.006;2024-03-02T03:28:08;7.60;99.90
31263;DHT22;17892;52.080;9.006;2024-03-02T03:30:37;7.60;99.90
31263;DHT22;17892;52.080;9.006;2024-03-02T03:33:04;7.60;99.90
31263;DHT22;17892;52.080;9.006;2024-03-02T03:35:31;7.60;99.90
31263;DHT22;17892;52.080;9.006;2024-03-02T03:37:57;7.60;99.90
31263;DHT22;17892;52.080;9.006;2024-03-02T03:40:23;7.60;99.90
31263;DHT22;17892;52.080;9.006;2024-03-02T03:42:49;7.60;99.90
31263;DHT22;17892;52.080;9.006;2024-03-02T03:45:16;7.60;99.90
31263;DHT22;17892;52.080;9.006;2024-03-02T03:47:41;7.60;99.90
31263;DHT22;17892;52.080;9.006;2024-03-02T03:50:07;7.60;99.90
31263;DHT22;17892;52.080;9.006;2024-03-02T03:52:33;7.60;99.90
31263;DHT22;17892;52.080;9.006;2024-03-02T03:54:59;7.60;99.90
31263;DHT22;17892;52.080;9.006;2024-03-02T03:57:26;7.60;99.90
31263;DHT22;17892;52.080;9.006;2024-03-02T03:59:52;7.60;99.90
31263;DHT22;17892;52.080;9.006;2024-03-02T04:02:18;7.60;99.90
31263;DHT22;17892;52.080;9.006;2024-03-02T04:04:44;7.60;99.90
31263;DHT22;17892;52.080;9.006;2024-03-02T04:07:09;7.60;99.90
31263;DHT22;17892;52.080;9.006;2024-03-02T04:09:35;7.60;99.90
31263;DHT22;17892;52.080;9.006;2024-03-02T04:12:01;7.60;99.90
31263;DHT22;17892;52.080;9.006;2024-03-02T04:14:26;7.60;99.90
31263;DHT22;17892;52.080;9.006;2024-03-02T04:16:52;7.60;99.90
31263;DHT22;17892;52.080;9.006;2024-03-02T04:19:18;7.70;99.90
31263;DHT22;17892;52.080;9.006;2024-03-02T04:21:43;7.60;99.90
31263;DHT22;17892;52.080;9.006;2024-03-02T04:24:09;7.60;99.90
31263;DHT22;17892;52.080;9.006;2024-03-02T04:26:35;7.70;99.90
31263;DHT22;17892;52.080;9.006;2024-03-02T04:29:00;7.70;99.90
31263;DHT22;17892;52.080;9.006;2024-03-02T04:31:27;7.70;99.90
31263;DHT22;17892;52.080;9.006;2024-03-02T04:33:52;7.80;99.90
31263;DHT22;17892;52.080;9.006;2024-03-02T04:36:19;7.70;99.90
31263;DHT22;17892;52.080;9.006;2024-03-02T04:38:45;7.80;99.90
31263;DHT22;17892;52.080;9.006;2024-03-02T04:41:10;7.80;99.90
31263;DHT22;17892;52.080;9.006;2024-03-02T04:43:36;7.80;99.90
31263;DHT22;17892;52.080;9.006;2024-03-02T04:46:02;7.80;99.90
31263;DHT22;17892;52.080;9.006;2024-03-02T04:48:27;7.80;99.90
31263;DHT22;17892;52.080;9.006;2024-03-02T04:50:53;7.80;99.90
31263;DHT22;17892;52.080;9.006;2024-03-02T04:53:19;7.80;99.90
31263;DHT22;17892;52.080;9.006;2024-03-02T04:55:44;7.80;99.90
31263;DHT22;17892;52.080;9.006;2024-03-02T04:58:19;7.80;99.90
31263;DHT22;17892;52.080;9.006;2024-03-02T05:00:44;7.80;99.90
31263;DHT22;17892;52.080;9.006;2024-03-02T05:03:12;7.80;99.90
31263;DHT22;17892;52.080;9.006;2024-03-02T05:05:38;7.80;99.90
31263;DHT22;17892;52.080;9.006;2024-03-02T05:08:04;7.80;99.90
31263;DHT22;17892;52.080;9.006;2024-03-02T05:10:30;7.80;99.90
31263;DHT22;17892;52.080;9.006;2024-03-02T05:12:55;7.80;99.90
31263;DHT22;17892;52.080;9.006;2024-03-02T05:15:25;7.80;99.90
31263;DHT22;17892;52.080;9.006;2024-03-02T05:17:50;7.90;99.90
31263;DHT22;17892;52.080;9.006;2024-03-02T05:20:16;7.90;99.90
31263;DHT22;17892;52.080;9.006;2024-03-02T05:22:42;7.90;99.90
31263;DHT22;17892;52.080;9.006;2024-03-02T05:25:08;7.90;99.90
31263;DHT22;17892;52.080;9.006;2024-03-02T05:27:35;7.90;99.90
31263;DHT22;17892;52.080;9.006;2024-03-02T05:30:01;7.90;99.90
31263;DHT22;17892;52.080;9.006;2024-03-02T05:32:27;7.90;99.90
31263;DHT22;17892;52.080;9.006;2024-03-02T05:34:53;7.90;99.90
31263;DHT22;17892;52.080;9.006;2024-03-02T05:37:19;7.90;99.90
31263;DHT22;17892;52.080;9.006;2024-03-02T05:39:45;7.90;99.90
31263;DHT22;17892;52.080;9.006;2024-03-02T05:42:11;7.90;99.90
31263;DHT22;17892;52.080;9.006;2024-03-02T05:44:37;7.90;99.90
31263;DHT22;17892;52.080;9.006;2024-03-02T05:47:02;7.90;99.90
31263;DHT22;17892;52.080;9.006;2024-03-02T05:49:29;7.90;99.90
31263;DHT22;17892;52.080;9.006;2024-03-02T05:51:55;7.90;99.90
31263;DHT22;17892;52.080;9.006;2024-03-02T05:54:20;7.90;99.90
31263;DHT22;17892;52.080;9.006;2024-03-02T05:56:46;7.90;99.90
31263;DHT22;17892;52.080;9.006;2024-03-02T05:59:12;7.90;99.90
31263;DHT22;17892;52.080;9.006;2024-03-02T06:01:43;7.90;99.90
31263;DHT22;17892;52.080;9.006;2024-03-02T06:04:13;7.90;99.90
31263;DHT22;17892;52.080;9.006;2024-03-02T06:06:40;7.90;99.90
31263;DHT22;17892;52.080;9.006;2024-03-02T06:09:06;8.00;99.90
31263;DHT22;17892;52.080;9.006;2024-03-02T06:11:41;7.90;99.90
31263;DHT22;17892;52.080;9.006;2024-03-02T06:14:08;7.90;99.90
31263;DHT22;17892;52.080;9.006;2024-03-02T06:16:34;7.90;99.90
31263;DHT22;17892;52.080;9.006;2024-03-02T06:19:01;7.90;99.90
31263;DHT22;17892;52.080;9.006;2024-03-02T06:21:27;8.00;99.90
31263;DHT22;17892;52.080;9.006;2024-03-02T06:23:53;8.00;99.90
31263;DHT22;17892;52.080;9.006;2024-03-02T06:26:20;7.90;99.90
31263;DHT22;17892;52.080;9.006;2024-03-02T06:28:46;7.90;99.90
31263;DHT22;17892;52.080;9.006;2024-03-02T06:31:11;8.00;99.90
31263;DHT22;17892;52.080;9.006;2024-03-02T06:33:37;8.00;99.90
31263;DHT22;17892;52.080;9.006;2024-03-02T06:36:04;8.00;99.90
31263;DHT22;17892;52.080;9.006;2024-03-02T06:38:30;8.10;99.90
31263;DHT22;17892;52.080;9.006;2024-03-02T06:40:58;8.10;99.90
31263;DHT22;17892;52.080;9.006;2024-03-02T06:43:25;8.10;99.90
31263;DHT22;17892;52.080;9.006;2024-03-02T06:45:51;8.20;99.90
31263;DHT22;17892;52.080;9.006;2024-03-02T06:48:19;8.30;99.90
31263;DHT22;17892;52.080;9.006;2024-03-02T06:50:49;8.30;99.90
31263;DHT22;17892;52.080;9.006;2024-03-02T06:53:15;8.40;99.90
31263;DHT22;17892;52.080;9.006;2024-03-02T06:55:45;8.40;99.90
31263;DHT22;17892;52.080;9.006;2024-03-02T06:58:14;8.50;99.90
31263;DHT22;17892;52.080;9.006;2024-03-02T07:00:43;8.60;99.90
31263;DHT22;17892;52.080;9.006;2024-03-02T07:03:09;8.70;99.90
31263;DHT22;17892;52.080;9.006;2024-03-02T07:05:35;8.80;99.90
31263;DHT22;17892;52.080;9.006;2024-03-02T07:08:01;8.80;99.90
31263;DHT22;17892;52.080;9.006;2024-03-02T07:10:28;9.00;99.90
31263;DHT22;17892;52.080;9.006;2024-03-02T07:12:53;9.10;99.90
31263;DHT22;17892;52.080;9.006;2024-03-02T07:15:19;9.20;99.90
31263;DHT22;17892;52.080;9.006;2024-03-02T07:18:08;9.40;99.90
31263;DHT22;17892;52.080;9.006;2024-03-02T07:20:34;9.60;99.90
31263;DHT22;17892;52.080;9.006;2024-03-02T07:22:59;9.70;99.90
31263;DHT22;17892;52.080;9.006;2024-03-02T07:25:25;9.80;99.90
31263;DHT22;17892;52.080;9.006;2024-03-02T07:27:51;9.90;99.90
31263;DHT22;17892;52.080;9.006;2024-03-02T07:30:16;10.00;99.90
31263;DHT22;17892;52.080;9.006;2024-03-02T07:32:42;10.00;99.90
31263;DHT22;17892;52.080;9.006;2024-03-02T07:35:14;10.00;99.90
31263;DHT22;17892;52.080;9.006;2024-03-02T07:37:41;10.00;99.90
31263;DHT22;17892;52.080;9.006;2024-03-02T07:40:08;10.00;99.90
31263;DHT22;17892;52.080;9.006;2024-03-02T07:42:40;9.90;99.90
31263;DHT22;17892;52.080;9.006;2024-03-02T07:45:06;9.90;99.90
31263;DHT22;17892;52.080;9.006;2024-03-02T07:47:34;9.80;99.90
31263;DHT22;17892;52.080;9.006;2024-03-02T07:50:00;9.80;99.90
31263;DHT22;17892;52.080;9.006;2024-03-02T07:52:26;9.80;99.90
31263;DHT22;17892;52.080;9.006;2024-03-02T07:54:51;9.80;99.90
31263;DHT22;17892;52.080;9.006;2024-03-02T07:57:17;9.70;99.90
31263;DHT22;17892;52.080;9.006;2024-03-02T07:59:43;9.70;99.90
31263;DHT22;17892;52.080;9.006;2024-03-02T08:02:09;9.70;99.90
31263;DHT22;17892;52.080;9.006;2024-03-02T08:04:35;9.70;99.90
31263;DHT22;17892;52.080;9.006;2024-03-02T08:07:02;9.70;99.90
31263;DHT22;17892;52.080;9.006;2024-03-02T08:09:28;9.70;99.90
31263;DHT22;17892;52.080;9.006;2024-03-02T08:11:53;9.70;99.90
31263;DHT22;17892;52.080;9.006;2024-03-02T08:14:19;9.70;99.90
31263;DHT22;17892;52.080;9.006;2024-03-02T08:16:45;9.70;99.90
31263;DHT22;17892;52.080;9.006;2024-03-02T08:19:11;9.70;99.90
31263;DHT22;17892;52.080;9.006;2024-03-02T08:21:37;9.60;99.90
31263;DHT22;17892;52.080;9.006;2024-03-02T08:24:03;9.60;99.90
31263;DHT22;17892;52.080;9.006;2024-03-02T08:26:28;9.60;99.90
31263;DHT22;17892;52.080;9.006;2024-03-02T08:28:57;9.60;99.90
31263;DHT22;17892;52.080;9.006;2024-03-02T08:31:27;9.60;99.90
31263;DHT22;17892;52.080;9.006;2024-03-02T08:33:53;9.70;99.90
31263;DHT22;17892;52.080;9.006;2024-03-02T08:36:19;9.70;99.90
31263;DHT22;17892;52.080;9.006;2024-03-02T08:38:45;9.80;99.90
31263;DHT22;17892;52.080;9.006;2024-03-02T08:41:11;9.90;99.90
31263;DHT22;17892;52.080;9.006;2024-03-02T08:43:38;10.10;99.90
31263;DHT22;17892;52.080;9.006;2024-03-02T08:46:05;10.40;99.90
31263;DHT22;17892;52.080;9.006;2024-03-02T08:48:31;10.70;99.90
31263;DHT22;17892;52.080;9.006;2024-03-02T08:50:57;11.10;99.90
31263;DHT22;17892;52.080;9.006;2024-03-02T08:53:22;11.50;99.90
31263;DHT22;17892;52.080;9.006;2024-03-02T08:55:48;11.80;99.90
31263;DHT22;17892;52.080;9.006;2024-03-02T08:58:14;12.20;99.90
31263;DHT22;17892;52.080;9.006;2024-03-02T09:00:40;12.60;99.90
31263;DHT22;17892;52.080;9.006;2024-03-02T09:03:07;13.00;99.90
31263;DHT22;17892;52.080;9.006;2024-03-02T09:05:32;13.30;99.90
31263;DHT22;17892;52.080;9.006;2024-03-02T09:07:58;13.50;99.90
31263;DHT22;17892;52.080;9.006;2024-03-02T09:10:24;13.60;99.90
31263;DHT22;17892;52.080;9.006;2024-03-02T09:12:50;13.70;99.90
31263;DHT22;17892;52.080;9.006;2024-03-02T09:15:15;13.70;99.90
31263;DHT22;17892;52.080;9.006;2024-03-02T09:17:41;13.70;99.90
31263;DHT22;17892;52.080;9.006;2024-03-02T09:20:07;13.60;99.90
31263;DHT22;17892;52.080;9.006;2024-03-02T09:22:33;13.60;99.90
31263;DHT22;17892;52.080;9.006;2024-03-02T09:24:59;13.70;99.90
31263;DHT22;17892;52.080;9.006;2024-03-02T09:27:24;13.70;99.90
31263;DHT22;17892;52.080;9.006;2024-03-02T09:29:50;13.70;99.90
31263;DHT22;17892;52.080;9.006;2024-03-02T09:32:16;13.70;99.90
31263;DHT22;17892;52.080;9.006;2024-03-02T09:34:41;13.70;99.90
31263;DHT22;17892;52.080;9.006;2024-03-02T09:37:08;13.70;99.90
31263;DHT22;17892;52.080;9.006;2024-03-02T09:39:34;13.70;99.90
31263;DHT22;17892;52.080;9.006;2024-03-02T09:42:00;13.60;99.90
31263;DHT22;17892;52.080;9.006;2024-03-02T09:44:26;13.40;99.90
31263;DHT22;17892;52.080;9.006;2024-03-02T09:46:52;13.30;99.90
31263;DHT22;17892;52.080;9.006;2024-03-02T09:49:18;13.20;99.90
31263;DHT22;17892;52.080;9.006;2024-03-02T09:51:47;13.40;99.90
31263;DHT22;17892;52.080;9.006;2024-03-02T09:54:13;13.60;99.90
31263;DHT22;17892;52.080;9.006;2024-03-02T09:56:40;13.90;99.90
31263;DHT22;17892;52.080;9.006;2024-03-02T09:59:06;14.20;99.90
31263;DHT22;17892;52.080;9.006;2024-03-02T10:01:32;14.50;99.90
31263;DHT22;17892;52.080;9.006;2024-03-02T10:04:01;14.90;99.90
31263;DHT22;17892;52.080;9.006;2024-03-02T10:06:29;15.20;99.90
31263;DHT22;17892;52.080;9.006;2024-03-02T10:08:56;15.50;99.90
31263;DHT22;17892;52.080;9.006;2024-03-02T10:11:32;15.70;99.90
31263;DHT22;17892;52.080;9.006;2024-03-02T10:14:10;15.90;98.40
31263;DHT22;17892;52.080;9.006;2024-03-02T10:16:38;16.20;99.90
31263;DHT22;17892;52.080;9.006;2024-03-02T10:19:23;16.20;99.90
31263;DHT22;17892;52.080;9.006;2024-03-02T10:21:50;16.40;97.20
31263;DHT22;17892;52.080;9.006;2024-03-02T10:24:18;16.50;99.60
31263;DHT22;17892;52.080;9.006;2024-03-02T10:26:44;16.60;99.90
31263;DHT22;17892;52.080;9.006;2024-03-02T10:29:10;16.70;99.90
31263;DHT22;17892;52.080;9.006;2024-03-02T10:31:41;16.80;98.60
31263;DHT22;17892;52.080;9.006;2024-03-02T10:34:09;16.90;98.50
31263;DHT22;17892;52.080;9.006;2024-03-02T10:36:35;17.00;97.90
31263;DHT22;17892;52.080;9.006;2024-03-02T10:41:31;17.20;99.90
31263;DHT22;17892;52.080;9.006;2024-03-02T10:43:59;17.30;99.90
31263;DHT22;17892;52.080;9.006;2024-03-02T10:46:28;17.50;99.90
31263;DHT22;17892;52.080;9.006;2024-03-02T10:48:56;17.60;98.20
31263;DHT22;17892;52.080;9.006;2024-03-02T10:51:26;17.80;99.80
31263;DHT22;17892;52.080;9.006;2024-03-02T10:53:54;17.90;99.90
31263;DHT22;17892;52.080;9.006;2024-03-02T10:56:28;18.00;99.40
31263;DHT22;17892;52.080;9.006;2024-03-02T11:02:11;18.30;97.20
31263;DHT22;17892;52.080;9.006;2024-03-02T11:04:38;18.40;99.90
31263;DHT22;17892;52.080;9.006;2024-03-02T11:07:06;18.50;94.50
31263;DHT22;17892;52.080;9.006;2024-03-02T11:09:39;18.50;98.50
31263;DHT22;17892;52.080;9.006;2024-03-02T11:12:29;18.70;98.90
31263;DHT22;17892;52.080;9.006;2024-03-02T11:14:58;18.80;96.10
31263;DHT22;17892;52.080;9.006;2024-03-02T11:17:24;18.90;97.10
31263;DHT22;17892;52.080;9.006;2024-03-02T11:19:50;18.90;96.50
31263;DHT22;17892;52.080;9.006;2024-03-02T11:22:17;19.00;97.40
31263;DHT22;17892;52.080;9.006;2024-03-02T11:24:52;19.10;97.30
31263;DHT22;17892;52.080;9.006;2024-03-02T11:33:09;19.30;93.90
31263;DHT22;17892;52.080;9.006;2024-03-02T11:35:42;19.40;97.60
31263;DHT22;17892;52.080;9.006;2024-03-02T11:38:13;19.40;94.70
31263;DHT22;17892;52.080;9.006;2024-03-02T11:40:40;19.40;95.80
31263;DHT22;17892;52.080;9.006;2024-03-02T11:43:06;19.40;94.60
31263;DHT22;17892;52.080;9.006;2024-03-02T11:45:33;19.20;93.70
31263;DHT22;17892;52.080;9.006;2024-03-02T11:48:00;19.20;95.70
31263;DHT22;17892;52.080;9.006;2024-03-02T11:50:34;19.20;95.10
31263;DHT22;17892;52.080;9.006;2024-03-02T11:53:05;19.30;92.10
31263;DHT22;17892;52.080;9.006;2024-03-02T11:55:37;19.40;93.50
31263;DHT22;17892;52.080;9.006;2024-03-02T11:58:05;19.30;92.90
31263;DHT22;17892;52.080;9.006;2024-03-02T12:00:31;19.40;93.10
31263;DHT22;17892;52.080;9.006;2024-03-02T12:03:01;19.40;94.50
31263;DHT22;17892;52.080;9.006;2024-03-02T12:05:30;19.50;91.80
31263;DHT22;17892;52.080;9.006;2024-03-02T12:08:01;19.60;95.30
31263;DHT22;17892;52.080;9.006;2024-03-02T12:10:28;19.70;94.50
31263;DHT22;17892;52.080;9.006;2024-03-02T12:12:59;19.80;95.50
31263;DHT22;17892;52.080;9.006;2024-03-02T12:15:43;19.90;95.10
31263;DHT22;17892;52.080;9.006;2024-03-02T12:18:09;20.00;91.80
31263;DHT22;17892;52.080;9.006;2024-03-02T12:20:35;19.90;94.30
31263;DHT22;17892;52.080;9.006;2024-03-02T12:23:02;19.70;91.30
31263;DHT22;17892;52.080;9.006;2024-03-02T12:25:30;19.40;92.00
31263;DHT22;17892;52.080;9.006;2024-03-02T12:27:58;19.20;92.40
31263;DHT22;17892;52.080;9.006;2024-03-02T12:30:29;19.00;92.70
31263;DHT22;17892;52.080;9.006;2024-03-02T12:32:56;18.70;91.40
31263;DHT22;17892;52.080;9.006;2024-03-02T12:35:21;18.80;94.40
31263;DHT22;17892;52.080;9.006;2024-03-02T12:37:52;18.90;95.80
31263;DHT22;17892;52.080;9.006;2024-03-02T12:40:19;18.90;90.90
31263;DHT22;17892;52.080;9.006;2024-03-02T12:42:46;19.10;95.10
31263;DHT22;17892;52.080;9.006;2024-03-02T12:45:16;19.40;95.20
31263;DHT22;17892;52.080;9.006;2024-03-02T12:47:49;19.60;94.30
31263;DHT22;17892;52.080;9.006;2024-03-02T12:50:14;19.80;94.10
31263;DHT22;17892;52.080;9.006;2024-03-02T12:52:40;19.90;92.70
31263;DHT22;17892;52.080;9.006;2024-03-02T12:55:06;20.00;93.30
31263;DHT22;17892;52.080;9.006;2024-03-02T12:57:33;19.80;91.60
31263;DHT22;17892;52.080;9.006;2024-03-02T13:00:04;19.70;91.40
31263;DHT22;17892;52.080;9.006;2024-03-02T13:02:40;19.40;88.90
31263;DHT22;17892;52.080;9.006;2024-03-02T13:05:07;19.10;91.40
31263;DHT22;17892;52.080;9.006;2024-03-02T13:07:40;18.90;91.50
31263;DHT22;17892;52.080;9.006;2024-03-02T13:10:10;18.80;90.30
31263;DHT22;17892;52.080;9.006;2024-03-02T13:12:37;18.70;92.30
31263;DHT22;17892;52.080;9.006;2024-03-02T13:15:03;18.80;92.80
31263;DHT22;17892;52.080;9.006;2024-03-02T13:17:30;18.90;94.60
31263;DHT22;17892;52.080;9.006;2024-03-02T13:19:59;19.10;94.40
31263;DHT22;17892;52.080;9.006;2024-03-02T13:22:25;19.00;92.10
31263;DHT22;17892;52.080;9.006;2024-03-02T13:24:52;19.00;91.30
31263;DHT22;17892;52.080;9.006;2024-03-02T13:27:21;19.00;93.40
31263;DHT22;17892;52.080;9.006;2024-03-02T13:29:47;19.00;93.50
31263;DHT22;17892;52.080;9.006;2024-03-02T13:32:14;19.10;93.80
31263;DHT22;17892;52.080;9.006;2024-03-02T13:34:40;19.30;94.00
31263;DHT22;17892;52.080;9.006;2024-03-02T13:37:06;19.50;93.80
31263;DHT22;17892;52.080;9.006;2024-03-02T13:39:32;19.50;92.30
31263;DHT22;17892;52.080;9.006;2024-03-02T13:42:00;19.60;93.00
31263;DHT22;17892;52.080;9.006;2024-03-02T13:44:31;19.70;93.20
31263;DHT22;17892;52.080;9.006;2024-03-02T13:46:58;19.80;93.30
31263;DHT22;17892;52.080;9.006;2024-03-02T13:49:25;19.90;91.70
31263;DHT22;17892;52.080;9.006;2024-03-02T13:51:54;19.90;92.10
31263;DHT22;17892;52.080;9.006;2024-03-02T13:54:20;20.00;92.30
31263;DHT22;17892;52.080;9.006;2024-03-02T13:56:46;20.00;91.80
31263;DHT22;17892;52.080;9.006;2024-03-02T13:59:12;19.80;90.00
31263;DHT22;17892;52.080;9.006;2024-03-02T14:01:38;19.50;87.70
31263;DHT22;17892;52.080;9.006;2024-03-02T14:04:03;19.40;91.00
31263;DHT22;17892;52.080;9.006;2024-03-02T14:06:29;19.20;91.70
31263;DHT22;17892;52.080;9.006;2024-03-02T14:08:55;18.90;91.00
31263;DHT22;17892;52.080;9.006;2024-03-02T14:11:20;18.70;91.10
31263;DHT22;17892;52.080;9.006;2024-03-02T14:13:46;18.40;91.40
31263;DHT22;17892;52.080;9.006;2024-03-02T14:16:19;18.20;91.50
31263;DHT22;17892;52.080;9.006;2024-03-02T14:18:44;18.00;90.30
31263;DHT22;17892;52.080;9.006;2024-03-02T14:21:10;17.70;91.10
31263;DHT22;17892;52.080;9.006;2024-03-02T14:23:35;17.60;91.60
31263;DHT22;17892;52.080;9.006;2024-03-02T14:26:01;17.40;91.10
31263;DHT22;17892;52.080;9.006;2024-03-02T14:28:27;17.30;90.60
31263;DHT22;17892;52.080;9.006;2024-03-02T14:30:53;17.30;92.50
31263;DHT22;17892;52.080;9.006;2024-03-02T14:33:20;17.40;93.10
31263;DHT22;17892;52.080;9.006;2024-03-02T14:35:45;17.40;93.40
31263;DHT22;17892;52.080;9.006;2024-03-02T14:38:12;17.50;92.00
31263;DHT22;17892;52.080;9.006;2024-03-02T14:40:37;17.40;91.30
31263;DHT22;17892;52.080;9.006;2024-03-02T14:43:04;17.40;91.20
31263;DHT22;17892;52.080;9.006;2024-03-02T14:45:29;17.40;92.10
31263;DHT22;17892;52.080;9.006;2024-03-02T14:47:56;17.40;92.20
31263;DHT22;17892;52.080;9.006;2024-03-02T14:50:27;17.50;92.10
31263;DHT22;17892;52.080;9.006;2024-03-02T14:52:53;17.60;91.90
31263;DHT22;17892;52.080;9.006;2024-03-02T14:55:19;17.60;90.90
31263;DHT22;17892;52.080;9.006;2024-03-02T14:57:45;17.50;90.10
31263;DHT22;17892;52.080;9.006;2024-03-02T15:00:11;17.30;89.40
31263;DHT22;17892;52.080;9.006;2024-03-02T15:02:37;17.20;89.00
31263;DHT22;17892;52.080;9.006;2024-03-02T15:05:04;17.00;89.40
31263;DHT22;17892;52.080;9.006;2024-03-02T15:07:31;16.80;90.30
31263;DHT22;17892;52.080;9.006;2024-03-02T15:09:57;16.70;90.80
31263;DHT22;17892;52.080;9.006;2024-03-02T15:12:23;16.50;90.50
31263;DHT22;17892;52.080;9.006;2024-03-02T15:14:49;16.50;91.00
31263;DHT22;17892;52.080;9.006;2024-03-02T15:17:15;16.60;91.80
31263;DHT22;17892;52.080;9.006;2024-03-02T15:19:42;16.80;91.70
31263;DHT22;17892;52.080;9.006;2024-03-02T15:22:08;16.90;92.10
31263;DHT22;17892;52.080;9.006;2024-03-02T15:24:34;17.10;91.60
31263;DHT22;17892;52.080;9.006;2024-03-02T15:26:59;17.30;93.20
31263;DHT22;17892;52.080;9.006;2024-03-02T15:29:29;17.50;92.20
31263;DHT22;17892;52.080;9.006;2024-03-02T15:31:56;17.60;92.30
31263;DHT22;17892;52.080;9.006;2024-03-02T15:34:22;17.80;92.50
31263;DHT22;17892;52.080;9.006;2024-03-02T15:36:49;17.90;92.20
31263;DHT22;17892;52.080;9.006;2024-03-02T15:39:15;17.90;92.40
31263;DHT22;17892;52.080;9.006;2024-03-02T15:41:40;18.10;93.80
31263;DHT22;17892;52.080;9.006;2024-03-02T15:44:06;18.10;90.30
31263;DHT22;17892;52.080;9.006;2024-03-02T15:46:33;18.10;90.70
31263;DHT22;17892;52.080;9.006;2024-03-02T15:48:59;18.20;91.10
31263;DHT22;17892;52.080;9.006;2024-03-02T15:51:26;18.20;91.20
31263;DHT22;17892;52.080;9.006;2024-03-02T15:53:52;18.10;89.90
31263;DHT22;17892;52.080;9.006;2024-03-02T15:56:18;18.00;89.40
31263;DHT22;17892;52.080;9.006;2024-03-02T15:58:44;18.00;89.60